Isle of North Uist, United Kingdom
Current Conditions -  °F | °C
As of 8:20 PM on Thursday 29 Jan 2015 (Local Time) from EGPL Reporting Station
Scattered Clouds Scattered Clouds  
Wind Chill: -1°   Ceiling: Unl
Heat Index:   Visibility: 6mi
Dew Point:   Wind: 10mph
Humidity: 93%   Direction: 340°NNW
Pressure: 28.79"   Gusts: NA
Location:  57.6°N, 7.16°W
Report Text: EGPL 292020Z 34009KT 9999 FEW020 SCT040 03/02 Q0975
Loading
Personal Weather Stations






























Interactive Weather Map New forecast layout! Learn more

10-Day Weather Forecast

Advertisements
Track Severe Weather on mobile